createdAt,value
2022-09-18T00:03:38.047Z,99.73
2022-09-18T00:08:41.064Z,98.47
2022-09-18T00:13:44.282Z,98.91
2022-09-18T00:18:48.996Z,98.59
2022-09-18T00:23:52.598Z,98.92
2022-09-18T00:28:57.036Z,97.75
2022-09-18T00:34:04.199Z,96.41
2022-09-18T00:39:07.307Z,96.83
2022-09-18T00:44:32.066Z,96.63
2022-09-18T00:49:37.697Z,95.70
2022-09-18T00:54:41.983Z,95.09
2022-09-18T00:59:47.271Z,95.17
2022-09-18T01:04:52.172Z,94.11
2022-09-18T01:10:04.616Z,93.75
2022-09-18T01:15:18.349Z,93.36
2022-09-18T01:20:56.172Z,93.04
2022-09-18T01:26:12.443Z,93.30
2022-09-18T01:31:20.585Z,92.53
2022-09-18T01:36:28.254Z,92.29
2022-09-18T01:41:31.533Z,91.65
2022-09-18T01:46:40.175Z,91.66
2022-09-18T01:51:48.822Z,92.33
2022-09-18T01:56:56.038Z,91.32
2022-09-18T02:02:04.992Z,91.04
2022-09-18T02:07:14.580Z,91.25
2022-09-18T02:12:21.306Z,90.10
2022-09-18T02:17:30.231Z,90.48
2022-09-18T02:22:35.844Z,91.36
2022-09-18T02:27:40.957Z,91.10
2022-09-18T02:32:44.700Z,90.49
2022-09-18T02:37:58.529Z,90.98
2022-09-18T02:43:16.507Z,90.66
2022-09-18T02:48:36.114Z,90.85
2022-09-18T02:53:46.125Z,89.06
2022-09-18T02:58:53.395Z,89.77
2022-09-18T03:04:03.526Z,90.75
2022-09-18T03:09:06.234Z,91.17
2022-09-18T03:14:09.013Z,92.46
2022-09-18T03:19:14.445Z,92.90
2022-09-18T03:24:17.295Z,92.42
2022-09-18T03:29:19.931Z,91.11
2022-09-18T03:34:23.766Z,92.15
2022-09-18T03:39:26.153Z,93.12
2022-09-18T03:44:28.585Z,94.05
2022-09-18T03:49:32.325Z,94.84
2022-09-18T03:54:34.735Z,95.33
2022-09-18T03:59:37.271Z,95.70
2022-09-18T04:04:41.010Z,95.81
2022-09-18T04:09:43.394Z,94.88
2022-09-18T04:14:45.829Z,93.01
2022-09-18T04:19:53.410Z,92.99
2022-09-18T04:24:56.267Z,93.02
2022-09-18T04:29:59.244Z,92.62
2022-09-18T04:35:02.982Z,92.84
2022-09-18T04:40:06.417Z,92.76
2022-09-18T04:45:10.853Z,94.37
2022-09-18T04:50:15.084Z,94.21
2022-09-18T04:55:17.622Z,94.13
2022-09-18T05:00:20.047Z,96.50
2022-09-18T05:05:24.643Z,96.75
2022-09-18T05:10:27.069Z,97.13
2022-09-18T05:15:29.743Z,96.53
2022-09-18T05:20:35.020Z,96.08
2022-09-18T05:25:37.448Z,95.23
2022-09-18T05:30:40.104Z,95.81
2022-09-18T05:35:44.076Z,94.72
2022-09-18T05:40:48.045Z,94.96
2022-09-18T05:45:50.626Z,94.39
2022-09-18T05:50:54.486Z,93.71
2022-09-18T05:55:56.940Z,93.50
2022-09-18T06:01:01.316Z,94.32
2022-09-18T06:06:05.546Z,94.47
2022-09-18T06:11:08.190Z,93.42
2022-09-18T06:16:10.692Z,93.44
2022-09-18T06:21:15.289Z,93.35
2022-09-18T06:26:17.685Z,92.99
2022-09-18T06:31:20.199Z,92.14
2022-09-18T06:36:24.021Z,92.85
2022-09-18T06:41:26.512Z,92.56
2022-09-18T06:46:28.962Z,92.00
2022-09-18T06:51:32.789Z,90.78
2022-09-18T06:56:35.266Z,90.44
2022-09-18T07:01:37.799Z,90.60
2022-09-18T07:06:44.963Z,90.80
2022-09-18T07:11:47.373Z,90.28
2022-09-18T07:16:49.809Z,89.55
2022-09-18T07:21:54.134Z,87.46
2022-09-18T07:26:56.940Z,87.52
2022-09-18T07:31:59.653Z,86.93
2022-09-18T07:37:03.559Z,85.83
2022-09-18T07:42:08.914Z,84.75
2022-09-18T07:47:12.602Z,85.26
2022-09-18T07:52:16.419Z,83.55
2022-09-18T07:57:18.878Z,84.19
2022-09-18T08:02:21.452Z,82.98
2022-09-18T08:07:26.574Z,81.63
2022-09-18T08:12:29.227Z,79.29
2022-09-18T08:17:31.697Z,80.52
2022-09-18T08:22:39.329Z,79.50
2022-09-18T08:27:42.700Z,78.11
2022-09-18T08:32:45.171Z,78.36
2022-09-18T08:38:01.973Z,76.48
2022-09-18T08:43:10.531Z,73.68
2022-09-18T08:48:16.964Z,74.54
2022-09-18T08:53:25.968Z,73.71
2022-09-18T08:58:34.600Z,73.36
2022-09-18T09:03:47.827Z,75.04
2022-09-18T09:09:13.424Z,77.14
2022-09-18T09:15:03.094Z,79.55
2022-09-18T09:20:19.018Z,81.85
2022-09-18T09:25:27.025Z,88.22
2022-09-18T09:30:31.869Z,85.10
2022-09-18T09:35:38.494Z,84.57
2022-09-18T09:40:46.296Z,82.28
2022-09-18T09:45:52.014Z,77.96
2022-09-18T09:50:57.908Z,73.48
2022-09-18T09:56:13.228Z,75.04
2022-09-18T10:01:23.341Z,76.72
2022-09-18T10:06:45.385Z,71.11
2022-09-18T10:11:57.862Z,72.92
2022-09-18T10:17:04.458Z,74.80
2022-09-18T10:22:08.929Z,80.41
2022-09-18T10:27:13.602Z,85.99
2022-09-18T10:32:35.749Z,88.39
2022-09-18T10:37:39.770Z,95.86
2022-09-18T10:42:44.369Z,94.28
2022-09-18T10:47:47.234Z,94.79
2022-09-18T10:53:02.747Z,95.89
2022-09-18T11:04:29.067Z,85.25
2022-09-18T11:09:37.272Z,83.69
2022-09-18T11:14:43.366Z,80.55
2022-09-18T11:19:52.275Z,85.09
2022-09-18T11:25:12.255Z,80.01
2022-09-18T11:30:17.631Z,79.08
2022-09-18T11:35:23.533Z,73.09
2022-09-18T11:40:29.975Z,74.84
2022-09-18T11:45:44.975Z,77.22
2022-09-18T11:50:51.250Z,77.10
2022-09-18T11:55:59.675Z,77.52
2022-09-18T12:01:14.485Z,77.14
2022-09-18T12:06:27.529Z,81.03
2022-09-18T12:11:36.219Z,80.66
2022-09-18T12:16:46.126Z,82.95
2022-09-18T12:21:56.581Z,86.69
2022-09-18T12:27:10.046Z,91.60
2022-09-18T12:32:29.497Z,94.51
2022-09-18T12:37:45.780Z,95.83
2022-09-18T12:43:03.817Z,95.98
2022-09-18T12:48:21.740Z,95.56
2022-09-18T12:53:36.330Z,93.95
2022-09-18T12:59:04.638Z,93.90
2022-09-18T13:04:20.204Z,92.94
2022-09-18T13:09:29.658Z,93.33
2022-09-18T13:14:37.707Z,97.79
2022-09-18T13:19:47.585Z,95.77
2022-09-18T13:24:54.299Z,94.38
2022-09-18T13:29:59.121Z,94.60
2022-09-18T13:35:05.072Z,94.89
2022-09-18T13:40:35.580Z,96.70
2022-09-18T13:45:39.895Z,96.63
2022-09-18T13:50:52.050Z,99.77
2022-09-18T13:55:55.933Z,100.00
2022-09-18T14:00:59.108Z,100.00
2022-09-18T14:06:36.581Z,100.00
2022-09-18T14:11:40.566Z,100.00
2022-09-18T14:16:44.848Z,100.00
2022-09-18T14:21:47.486Z,100.00
2022-09-18T14:27:16.766Z,100.00
2022-09-18T14:32:20.263Z,99.33
2022-09-18T14:37:26.839Z,97.11
2022-09-18T14:42:33.621Z,95.89
2022-09-18T14:47:36.686Z,96.12
2022-09-18T14:52:44.269Z,95.20
2022-09-18T14:57:53.388Z,97.01
2022-09-18T15:02:58.551Z,97.47
2022-09-18T15:08:04.689Z,97.22
2022-09-18T15:13:10.239Z,96.21
2022-09-18T15:18:21.257Z,96.74
2022-09-18T15:23:28.001Z,96.52
2022-09-18T15:28:35.452Z,95.88
2022-09-18T15:33:42.999Z,96.12
2022-09-18T15:38:48.008Z,96.66
2022-09-18T15:43:52.272Z,97.89
2022-09-18T15:48:59.347Z,98.89
2022-09-18T15:54:09.563Z,96.58
2022-09-18T15:59:23.297Z,96.99
2022-09-18T16:04:29.588Z,96.50
2022-09-18T16:09:38.826Z,100.00
2022-09-18T16:14:44.789Z,97.59
2022-09-18T16:19:47.424Z,99.00
2022-09-18T16:24:50.345Z,98.50
2022-09-18T16:29:54.384Z,97.88
2022-09-18T16:34:56.799Z,98.50
2022-09-18T16:40:00.800Z,99.02
2022-09-18T16:45:05.360Z,96.88
2022-09-18T16:50:08.165Z,95.26
2022-09-18T16:55:10.652Z,96.09
2022-09-18T17:00:15.877Z,97.04
2022-09-18T17:05:19.036Z,97.16
2022-09-18T17:10:21.576Z,97.32
2022-09-18T17:15:25.663Z,96.84
2022-09-18T17:20:28.142Z,96.89
2022-09-18T17:25:31.239Z,96.80
2022-09-18T17:30:35.091Z,96.30
2022-09-18T17:35:37.876Z,95.92
2022-09-18T17:40:40.386Z,92.49
2022-09-18T17:45:46.950Z,92.22
2022-09-18T17:50:49.647Z,91.39
2022-09-18T17:55:55.417Z,87.51
2022-09-18T18:01:00.216Z,85.64
2022-09-18T18:06:03.436Z,85.93
2022-09-18T18:11:07.892Z,83.63
2022-09-18T18:16:14.180Z,83.54
2022-09-18T18:21:17.693Z,90.87
2022-09-18T18:26:20.135Z,92.49
2022-09-18T18:31:25.528Z,94.07
2022-09-18T18:36:29.599Z,93.15
2022-09-18T18:41:33.652Z,93.64
2022-09-18T18:46:38.096Z,92.95
2022-09-18T18:51:43.598Z,90.40
2022-09-18T18:56:47.239Z,89.84
2022-09-18T19:01:51.202Z,90.60
2022-09-18T19:06:54.062Z,92.29
2022-09-18T19:11:57.724Z,90.75
2022-09-18T19:17:02.100Z,92.65
2022-09-18T19:22:04.569Z,96.92
2022-09-18T19:27:07.398Z,96.67
2022-09-18T19:32:11.619Z,94.94
2022-09-18T19:37:17.794Z,97.97
2022-09-18T19:42:21.018Z,99.06
2022-09-18T19:47:27.170Z,99.88
2022-09-18T19:52:30.063Z,99.49
2022-09-18T19:57:32.480Z,98.65
2022-09-18T20:02:36.363Z,99.80
2022-09-18T20:07:39.777Z,100.00
2022-09-18T20:12:43.346Z,100.00
2022-09-18T20:17:47.350Z,99.59
2022-09-18T20:22:53.963Z,98.35
2022-09-18T20:27:56.410Z,98.64
2022-09-18T20:33:01.839Z,99.52
2022-09-18T20:38:05.919Z,98.36
2022-09-18T20:43:08.533Z,98.43
2022-09-18T20:48:12.847Z,98.30
2022-09-18T20:53:15.381Z,98.23
2022-09-18T20:58:18.139Z,99.45
2022-09-18T21:03:22.371Z,99.50
2022-09-18T21:08:25.865Z,99.13
2022-09-18T21:13:28.272Z,99.12
2022-09-18T21:18:32.287Z,99.09
2022-09-18T21:23:52.360Z,100.00
2022-09-18T21:28:56.711Z,99.38
2022-09-18T21:34:01.658Z,100.00
2022-09-18T21:39:04.387Z,100.00
2022-09-18T21:44:08.839Z,100.00
2022-09-18T21:49:14.925Z,100.00
2022-09-18T21:54:19.528Z,100.00
2022-09-18T21:59:22.828Z,100.00
2022-09-18T22:04:29.033Z,100.00
2022-09-18T22:09:33.279Z,100.00
2022-09-18T22:14:38.142Z,100.00
2022-09-18T22:19:42.152Z,100.00
2022-09-18T22:24:44.552Z,100.00
2022-09-18T22:29:46.985Z,100.00
2022-09-18T22:34:52.659Z,100.00
2022-09-18T22:39:55.330Z,100.00
2022-09-18T22:44:57.826Z,100.00
2022-09-18T22:50:02.118Z,100.00
2022-09-18T22:55:04.924Z,100.00
2022-09-18T23:00:08.465Z,100.00
2022-09-18T23:05:12.405Z,100.00
2022-09-18T23:10:15.048Z,100.00
2022-09-18T23:15:17.601Z,100.00
2022-09-18T23:20:21.466Z,100.00
2022-09-18T23:25:23.865Z,100.00
2022-09-18T23:30:26.505Z,100.00
2022-09-18T23:35:30.232Z,100.00
2022-09-18T23:40:32.710Z,100.00
2022-09-18T23:45:35.197Z,100.00
2022-09-18T23:50:39.115Z,100.00
2022-09-18T23:55:41.550Z,100.00
